sensor_id;sensor_type;location;lat;lon;timestamp;pressure;altitude;pressure_sealevel;temperature
63220;BMP180;49320;52.512;13.448;2024-03-08T00:00:12;101960.00;;;10.40
63220;BMP180;49320;52.512;13.448;2024-03-08T00:02:42;101953.00;;;10.40
63220;BMP180;49320;52.512;13.448;2024-03-08T00:05:10;101954.00;;;10.40
63220;BMP180;49320;52.512;13.448;2024-03-08T00:07:38;101955.00;;;10.40
63220;BMP180;49320;52.512;13.448;2024-03-08T00:10:07;101954.00;;;10.40
63220;BMP180;49320;52.512;13.448;2024-03-08T00:12:44;101955.00;;;10.40
63220;BMP180;49320;52.512;13.448;2024-03-08T00:15:16;101959.00;;;10.30
63220;BMP180;49320;52.512;13.448;2024-03-08T00:17:46;101955.00;;;10.30
63220;BMP180;49320;52.512;13.448;2024-03-08T00:20:15;101958.00;;;10.30
63220;BMP180;49320;52.512;13.448;2024-03-08T00:22:46;101950.00;;;10.30
63220;BMP180;49320;52.512;13.448;2024-03-08T00:25:13;101949.00;;;10.20
63220;BMP180;49320;52.512;13.448;2024-03-08T00:27:40;101955.00;;;10.30
63220;BMP180;49320;52.512;13.448;2024-03-08T00:30:08;101952.00;;;10.20
63220;BMP180;49320;52.512;13.448;2024-03-08T00:32:36;101961.00;;;10.20
63220;BMP180;49320;52.512;13.448;2024-03-08T00:35:04;101950.00;;;10.20
63220;BMP180;49320;52.512;13.448;2024-03-08T00:37:34;101953.00;;;10.20
63220;BMP180;49320;52.512;13.448;2024-03-08T00:40:01;101951.00;;;10.20
63220;BMP180;49320;52.512;13.448;2024-03-08T00:42:28;101944.00;;;10.20
63220;BMP180;49320;52.512;13.448;2024-03-08T00:44:54;101946.00;;;10.10
63220;BMP180;49320;52.512;13.448;2024-03-08T00:47:21;101947.00;;;10.10
63220;BMP180;49320;52.512;13.448;2024-03-08T00:49:49;101938.00;;;10.10
63220;BMP180;49320;52.512;13.448;2024-03-08T00:52:15;101948.00;;;10.10
63220;BMP180;49320;52.512;13.448;2024-03-08T00:54:45;101942.00;;;10.10
63220;BMP180;49320;52.512;13.448;2024-03-08T00:57:11;101937.00;;;10.10
63220;BMP180;49320;52.512;13.448;2024-03-08T00:59:39;101942.00;;;10.10
63220;BMP180;49320;52.512;13.448;2024-03-08T01:02:06;101939.00;;;10.10
63220;BMP180;49320;52.512;13.448;2024-03-08T01:04:33;101942.00;;;10.10
63220;BMP180;49320;52.512;13.448;2024-03-08T01:07:00;101937.00;;;10.10
63220;BMP180;49320;52.512;13.448;2024-03-08T01:09:27;101926.00;;;10.10
63220;BMP180;49320;52.512;13.448;2024-03-08T01:11:55;101927.00;;;10.00
63220;BMP180;49320;52.512;13.448;2024-03-08T01:14:24;101923.00;;;10.00
63220;BMP180;49320;52.512;13.448;2024-03-08T01:16:52;101910.00;;;10.00
63220;BMP180;49320;52.512;13.448;2024-03-08T01:19:19;101907.00;;;10.00
63220;BMP180;49320;52.512;13.448;2024-03-08T01:21:46;101910.00;;;10.00
63220;BMP180;49320;52.512;13.448;2024-03-08T01:24:13;101901.00;;;10.00
63220;BMP180;49320;52.512;13.448;2024-03-08T01:26:40;101896.00;;;10.00
63220;BMP180;49320;52.512;13.448;2024-03-08T01:29:07;101892.00;;;10.00
63220;BMP180;49320;52.512;13.448;2024-03-08T01:31:35;101906.00;;;10.00
63220;BMP180;49320;52.512;13.448;2024-03-08T01:34:03;101889.00;;;10.00
63220;BMP180;49320;52.512;13.448;2024-03-08T01:36:30;101891.00;;;10.00
63220;BMP180;49320;52.512;13.448;2024-03-08T01:38:57;101888.00;;;10.00
63220;BMP180;49320;52.512;13.448;2024-03-08T01:41:24;101894.00;;;10.00
63220;BMP180;49320;52.512;13.448;2024-03-08T01:43:51;101882.00;;;9.90
63220;BMP180;49320;52.512;13.448;2024-03-08T01:46:21;101881.00;;;9.90
63220;BMP180;49320;52.512;13.448;2024-03-08T01:48:49;101879.00;;;9.90
63220;BMP180;49320;52.512;13.448;2024-03-08T01:51:19;101875.00;;;9.90
63220;BMP180;49320;52.512;13.448;2024-03-08T01:53:47;101870.00;;;9.90
63220;BMP180;49320;52.512;13.448;2024-03-08T01:56:16;101884.00;;;9.80
63220;BMP180;49320;52.512;13.448;2024-03-08T01:58:44;101862.00;;;9.80
63220;BMP180;49320;52.512;13.448;2024-03-08T02:01:15;101869.00;;;9.80
63220;BMP180;49320;52.512;13.448;2024-03-08T02:03:44;101870.00;;;9.80
63220;BMP180;49320;52.512;13.448;2024-03-08T02:06:12;101862.00;;;9.80
63220;BMP180;49320;52.512;13.448;2024-03-08T02:08:45;101855.00;;;9.80
63220;BMP180;49320;52.512;13.448;2024-03-08T02:11:13;101858.00;;;9.70
63220;BMP180;49320;52.512;13.448;2024-03-08T02:13:41;101857.00;;;9.70
63220;BMP180;49320;52.512;13.448;2024-03-08T02:16:08;101843.00;;;9.70
63220;BMP180;49320;52.512;13.448;2024-03-08T02:18:36;101840.00;;;9.60
63220;BMP180;49320;52.512;13.448;2024-03-08T02:21:05;101855.00;;;9.60
63220;BMP180;49320;52.512;13.448;2024-03-08T02:23:33;101850.00;;;9.60
63220;BMP180;49320;52.512;13.448;2024-03-08T02:26:01;101846.00;;;9.60
63220;BMP180;49320;52.512;13.448;2024-03-08T02:28:28;101858.00;;;9.60
63220;BMP180;49320;52.512;13.448;2024-03-08T02:30:55;101849.00;;;9.60
63220;BMP180;49320;52.512;13.448;2024-03-08T02:33:26;101841.00;;;9.60
63220;BMP180;49320;52.512;13.448;2024-03-08T02:35:53;101847.00;;;9.50
63220;BMP180;49320;52.512;13.448;2024-03-08T02:38:22;101845.00;;;9.50
63220;BMP180;49320;52.512;13.448;2024-03-08T02:40:52;101852.00;;;9.50
63220;BMP180;49320;52.512;13.448;2024-03-08T02:43:22;101838.00;;;9.50
63220;BMP180;49320;52.512;13.448;2024-03-08T02:45:50;101833.00;;;9.50
63220;BMP180;49320;52.512;13.448;2024-03-08T02:48:17;101846.00;;;9.50
63220;BMP180;49320;52.512;13.448;2024-03-08T02:50:44;101845.00;;;9.40
63220;BMP180;49320;52.512;13.448;2024-03-08T02:53:13;101838.00;;;9.40
63220;BMP180;49320;52.512;13.448;2024-03-08T02:55:41;101823.00;;;9.40
63220;BMP180;49320;52.512;13.448;2024-03-08T02:58:09;101838.00;;;9.40
63220;BMP180;49320;52.512;13.448;2024-03-08T03:00:38;101828.00;;;9.30
63220;BMP180;49320;52.512;13.448;2024-03-08T03:03:09;101835.00;;;9.30
63220;BMP180;49320;52.512;13.448;2024-03-08T03:05:36;101824.00;;;9.30
63220;BMP180;49320;52.512;13.448;2024-03-08T03:08:03;101827.00;;;9.30
63220;BMP180;49320;52.512;13.448;2024-03-08T03:10:36;101826.00;;;9.30
63220;BMP180;49320;52.512;13.448;2024-03-08T03:13:04;101824.00;;;9.30
63220;BMP180;49320;52.512;13.448;2024-03-08T03:15:35;101831.00;;;9.30
63220;BMP180;49320;52.512;13.448;2024-03-08T03:18:03;101834.00;;;9.30
63220;BMP180;49320;52.512;13.448;2024-03-08T03:20:30;101823.00;;;9.30
63220;BMP180;49320;52.512;13.448;2024-03-08T03:23:03;101823.00;;;9.20
63220;BMP180;49320;52.512;13.448;2024-03-08T03:25:30;101818.00;;;9.20
63220;BMP180;49320;52.512;13.448;2024-03-08T03:28:02;101824.00;;;9.20
63220;BMP180;49320;52.512;13.448;2024-03-08T03:30:30;101829.00;;;9.20
63220;BMP180;49320;52.512;13.448;2024-03-08T03:33:01;101826.00;;;9.10
63220;BMP180;49320;52.512;13.448;2024-03-08T03:35:28;101817.00;;;9.10
63220;BMP180;49320;52.512;13.448;2024-03-08T03:37:56;101815.00;;;9.10
63220;BMP180;49320;52.512;13.448;2024-03-08T03:40:42;101815.00;;;9.10
63220;BMP180;49320;52.512;13.448;2024-03-08T03:43:09;101814.00;;;9.00
63220;BMP180;49320;52.512;13.448;2024-03-08T03:45:39;101809.00;;;9.00
63220;BMP180;49320;52.512;13.448;2024-03-08T03:48:08;101806.00;;;9.00
63220;BMP180;49320;52.512;13.448;2024-03-08T03:50:37;101821.00;;;8.90
63220;BMP180;49320;52.512;13.448;2024-03-08T03:53:05;101803.00;;;9.00
63220;BMP180;49320;52.512;13.448;2024-03-08T03:55:36;101818.00;;;9.00
63220;BMP180;49320;52.512;13.448;2024-03-08T03:58:08;101808.00;;;8.90
63220;BMP180;49320;52.512;13.448;2024-03-08T04:00:37;101819.00;;;8.90
63220;BMP180;49320;52.512;13.448;2024-03-08T04:03:04;101820.00;;;8.90
63220;BMP180;49320;52.512;13.448;2024-03-08T04:05:33;101816.00;;;8.90
63220;BMP180;49320;52.512;13.448;2024-03-08T04:08:00;101821.00;;;8.90
63220;BMP180;49320;52.512;13.448;2024-03-08T04:10:27;101820.00;;;8.90
63220;BMP180;49320;52.512;13.448;2024-03-08T04:12:54;101807.00;;;8.90
63220;BMP180;49320;52.512;13.448;2024-03-08T04:15:21;101809.00;;;8.90
63220;BMP180;49320;52.512;13.448;2024-03-08T04:17:48;101816.00;;;8.90
63220;BMP180;49320;52.512;13.448;2024-03-08T04:20:15;101809.00;;;8.80
63220;BMP180;49320;52.512;13.448;2024-03-08T04:22:44;101813.00;;;8.80
63220;BMP180;49320;52.512;13.448;2024-03-08T04:25:14;101809.00;;;8.80
63220;BMP180;49320;52.512;13.448;2024-03-08T04:27:41;101811.00;;;8.80
63220;BMP180;49320;52.512;13.448;2024-03-08T04:30:09;101817.00;;;8.80
63220;BMP180;49320;52.512;13.448;2024-03-08T04:32:36;101817.00;;;8.80
63220;BMP180;49320;52.512;13.448;2024-03-08T04:35:05;101817.00;;;8.70
63220;BMP180;49320;52.512;13.448;2024-03-08T04:37:31;101817.00;;;8.70
63220;BMP180;49320;52.512;13.448;2024-03-08T04:39:59;101820.00;;;8.70
63220;BMP180;49320;52.512;13.448;2024-03-08T04:42:30;101822.00;;;8.80
63220;BMP180;49320;52.512;13.448;2024-03-08T04:44:59;101820.00;;;8.80
63220;BMP180;49320;52.512;13.448;2024-03-08T04:47:26;101819.00;;;8.80
63220;BMP180;49320;52.512;13.448;2024-03-08T04:49:53;101812.00;;;8.70
63220;BMP180;49320;52.512;13.448;2024-03-08T04:52:21;101805.00;;;8.70
63220;BMP180;49320;52.512;13.448;2024-03-08T04:54:48;101815.00;;;8.60
63220;BMP180;49320;52.512;13.448;2024-03-08T04:57:15;101803.00;;;8.60
63220;BMP180;49320;52.512;13.448;2024-03-08T04:59:45;101808.00;;;8.60
63220;BMP180;49320;52.512;13.448;2024-03-08T05:02:12;101798.00;;;8.60
63220;BMP180;49320;52.512;13.448;2024-03-08T05:04:39;101808.00;;;8.60
63220;BMP180;49320;52.512;13.448;2024-03-08T05:07:06;101802.00;;;8.60
63220;BMP180;49320;52.512;13.448;2024-03-08T05:09:34;101801.00;;;8.60
63220;BMP180;49320;52.512;13.448;2024-03-08T05:12:02;101803.00;;;8.60
63220;BMP180;49320;52.512;13.448;2024-03-08T05:14:29;101802.00;;;8.60
63220;BMP180;49320;52.512;13.448;2024-03-08T05:16:56;101803.00;;;8.60
63220;BMP180;49320;52.512;13.448;2024-03-08T05:19:23;101802.00;;;8.60
63220;BMP180;49320;52.512;13.448;2024-03-08T05:21:50;101805.00;;;8.50
63220;BMP180;49320;52.512;13.448;2024-03-08T05:24:17;101798.00;;;8.50
63220;BMP180;49320;52.512;13.448;2024-03-08T05:26:46;101795.00;;;8.50
63220;BMP180;49320;52.512;13.448;2024-03-08T05:29:13;101805.00;;;8.50
63220;BMP180;49320;52.512;13.448;2024-03-08T05:31:50;101801.00;;;8.50
63220;BMP180;49320;52.512;13.448;2024-03-08T05:34:17;101802.00;;;8.40
63220;BMP180;49320;52.512;13.448;2024-03-08T05:36:46;101795.00;;;8.40
63220;BMP180;49320;52.512;13.448;2024-03-08T05:39:13;101789.00;;;8.40
63220;BMP180;49320;52.512;13.448;2024-03-08T05:41:41;101792.00;;;8.40
63220;BMP180;49320;52.512;13.448;2024-03-08T05:44:09;101786.00;;;8.40
63220;BMP180;49320;52.512;13.448;2024-03-08T05:46:37;101793.00;;;8.30
63220;BMP180;49320;52.512;13.448;2024-03-08T05:49:04;101792.00;;;8.40
63220;BMP180;49320;52.512;13.448;2024-03-08T05:51:37;101798.00;;;8.30
63220;BMP180;49320;52.512;13.448;2024-03-08T05:54:07;101785.00;;;8.30
63220;BMP180;49320;52.512;13.448;2024-03-08T05:56:40;101793.00;;;8.30
63220;BMP180;49320;52.512;13.448;2024-03-08T05:59:09;101788.00;;;8.30
63220;BMP180;49320;52.512;13.448;2024-03-08T06:01:36;101798.00;;;8.40
63220;BMP180;49320;52.512;13.448;2024-03-08T06:04:04;101804.00;;;8.40
63220;BMP180;49320;52.512;13.448;2024-03-08T06:06:31;101805.00;;;8.40
63220;BMP180;49320;52.512;13.448;2024-03-08T06:08:58;101801.00;;;8.40
63220;BMP180;49320;52.512;13.448;2024-03-08T06:11:26;101805.00;;;8.40
63220;BMP180;49320;52.512;13.448;2024-03-08T06:13:57;101795.00;;;8.40
63220;BMP180;49320;52.512;13.448;2024-03-08T06:16:27;101800.00;;;8.40
63220;BMP180;49320;52.512;13.448;2024-03-08T06:18:57;101799.00;;;8.40
63220;BMP180;49320;52.512;13.448;2024-03-08T06:21:27;101805.00;;;8.50
63220;BMP180;49320;52.512;13.448;2024-03-08T06:23:54;101802.00;;;8.50
63220;BMP180;49320;52.512;13.448;2024-03-08T06:26:25;101801.00;;;8.50
63220;BMP180;49320;52.512;13.448;2024-03-08T06:28:56;101799.00;;;8.60
63220;BMP180;49320;52.512;13.448;2024-03-08T06:31:23;101802.00;;;8.60
63220;BMP180;49320;52.512;13.448;2024-03-08T06:33:50;101806.00;;;8.60
63220;BMP180;49320;52.512;13.448;2024-03-08T06:36:18;101801.00;;;8.60
63220;BMP180;49320;52.512;13.448;2024-03-08T06:38:52;101804.00;;;8.70
63220;BMP180;49320;52.512;13.448;2024-03-08T06:41:19;101798.00;;;8.70
63220;BMP180;49320;52.512;13.448;2024-03-08T06:43:47;101796.00;;;8.80
63220;BMP180;49320;52.512;13.448;2024-03-08T06:46:16;101795.00;;;8.80
63220;BMP180;49320;52.512;13.448;2024-03-08T06:48:43;101805.00;;;8.80
63220;BMP180;49320;52.512;13.448;2024-03-08T06:51:10;101796.00;;;8.80
63220;BMP180;49320;52.512;13.448;2024-03-08T06:53:38;101797.00;;;8.90
63220;BMP180;49320;52.512;13.448;2024-03-08T06:56:05;101803.00;;;8.90
63220;BMP180;49320;52.512;13.448;2024-03-08T06:58:34;101800.00;;;9.00
63220;BMP180;49320;52.512;13.448;2024-03-08T07:01:01;101792.00;;;9.00
63220;BMP180;49320;52.512;13.448;2024-03-08T07:03:30;101795.00;;;9.00
63220;BMP180;49320;52.512;13.448;2024-03-08T07:05:59;101792.00;;;9.10
63220;BMP180;49320;52.512;13.448;2024-03-08T07:08:26;101795.00;;;9.10
63220;BMP180;49320;52.512;13.448;2024-03-08T07:10:54;101795.00;;;9.20
63220;BMP180;49320;52.512;13.448;2024-03-08T07:13:21;101788.00;;;9.20
63220;BMP180;49320;52.512;13.448;2024-03-08T07:15:49;101791.00;;;9.30
63220;BMP180;49320;52.512;13.448;2024-03-08T07:18:16;101795.00;;;9.30
63220;BMP180;49320;52.512;13.448;2024-03-08T07:20:43;101794.00;;;9.40
63220;BMP180;49320;52.512;13.448;2024-03-08T07:23:12;101791.00;;;9.40
63220;BMP180;49320;52.512;13.448;2024-03-08T07:25:59;101800.00;;;9.50
63220;BMP180;49320;52.512;13.448;2024-03-08T07:28:27;101792.00;;;9.50
63220;BMP180;49320;52.512;13.448;2024-03-08T07:30:58;101793.00;;;9.60
63220;BMP180;49320;52.512;13.448;2024-03-08T07:33:52;101789.00;;;9.60
63220;BMP180;49320;52.512;13.448;2024-03-08T07:36:20;101789.00;;;9.60
63220;BMP180;49320;52.512;13.448;2024-03-08T07:38:48;101779.00;;;9.70
63220;BMP180;49320;52.512;13.448;2024-03-08T07:41:15;101771.00;;;9.70
63220;BMP180;49320;52.512;13.448;2024-03-08T07:43:43;101776.00;;;9.80
63220;BMP180;49320;52.512;13.448;2024-03-08T07:46:10;101771.00;;;9.80
63220;BMP180;49320;52.512;13.448;2024-03-08T07:48:37;101767.00;;;9.80
63220;BMP180;49320;52.512;13.448;2024-03-08T07:51:04;101770.00;;;9.90
63220;BMP180;49320;52.512;13.448;2024-03-08T07:53:31;101768.00;;;10.00
63220;BMP180;49320;52.512;13.448;2024-03-08T07:55:58;101767.00;;;10.00
63220;BMP180;49320;52.512;13.448;2024-03-08T07:58:25;101773.00;;;10.10
63220;BMP180;49320;52.512;13.448;2024-03-08T08:00:52;101756.00;;;10.10
63220;BMP180;49320;52.512;13.448;2024-03-08T08:03:18;101750.00;;;10.20
63220;BMP180;49320;52.512;13.448;2024-03-08T08:05:47;101759.00;;;10.20
63220;BMP180;49320;52.512;13.448;2024-03-08T08:08:15;101761.00;;;10.30
63220;BMP180;49320;52.512;13.448;2024-03-08T08:10:42;101752.00;;;10.30
63220;BMP180;49320;52.512;13.448;2024-03-08T08:13:09;101757.00;;;10.40
63220;BMP180;49320;52.512;13.448;2024-03-08T08:15:36;101752.00;;;10.50
63220;BMP180;49320;52.512;13.448;2024-03-08T08:18:04;101750.00;;;10.50
63220;BMP180;49320;52.512;13.448;2024-03-08T08:20:33;101748.00;;;10.60
63220;BMP180;49320;52.512;13.448;2024-03-08T08:23:00;101761.00;;;10.70
63220;BMP180;49320;52.512;13.448;2024-03-08T08:25:27;101744.00;;;10.80
63220;BMP180;49320;52.512;13.448;2024-03-08T08:27:55;101755.00;;;10.80
63220;BMP180;49320;52.512;13.448;2024-03-08T08:30:22;101744.00;;;10.90
63220;BMP180;49320;52.512;13.448;2024-03-08T08:32:49;101744.00;;;10.90
63220;BMP180;49320;52.512;13.448;2024-03-08T08:35:16;101741.00;;;11.00
63220;BMP180;49320;52.512;13.448;2024-03-08T08:37:45;101736.00;;;11.10
63220;BMP180;49320;52.512;13.448;2024-03-08T08:40:12;101743.00;;;11.10
63220;BMP180;49320;52.512;13.448;2024-03-08T08:42:42;101740.00;;;11.20
63220;BMP180;49320;52.512;13.448;2024-03-08T08:45:10;101739.00;;;11.30
63220;BMP180;49320;52.512;13.448;2024-03-08T08:47:46;101734.00;;;11.30
63220;BMP180;49320;52.512;13.448;2024-03-08T08:50:13;101749.00;;;11.30
63220;BMP180;49320;52.512;13.448;2024-03-08T08:52:40;101727.00;;;11.40
63220;BMP180;49320;52.512;13.448;2024-03-08T08:55:10;101729.00;;;11.40
63220;BMP180;49320;52.512;13.448;2024-03-08T08:57:42;101713.00;;;11.50
63220;BMP180;49320;52.512;13.448;2024-03-08T09:00:10;101729.00;;;11.50
63220;BMP180;49320;52.512;13.448;2024-03-08T09:02:42;101721.00;;;11.60
63220;BMP180;49320;52.512;13.448;2024-03-08T09:05:09;101712.00;;;11.60
63220;BMP180;49320;52.512;13.448;2024-03-08T09:07:37;101705.00;;;11.60
63220;BMP180;49320;52.512;13.448;2024-03-08T09:10:04;101716.00;;;11.70
63220;BMP180;49320;52.512;13.448;2024-03-08T09:12:34;101727.00;;;11.70
63220;BMP180;49320;52.512;13.448;2024-03-08T09:15:01;101702.00;;;11.70
63220;BMP180;49320;52.512;13.448;2024-03-08T09:17:28;101706.00;;;11.80
63220;BMP180;49320;52.512;13.448;2024-03-08T09:19:55;101705.00;;;11.80
63220;BMP180;49320;52.512;13.448;2024-03-08T09:22:24;101712.00;;;11.90
63220;BMP180;49320;52.512;13.448;2024-03-08T09:24:52;101705.00;;;11.90
63220;BMP180;49320;52.512;13.448;2024-03-08T09:27:19;101710.00;;;12.00
63220;BMP180;49320;52.512;13.448;2024-03-08T09:29:46;101701.00;;;12.00
63220;BMP180;49320;52.512;13.448;2024-03-08T09:32:13;101693.00;;;12.10
63220;BMP180;49320;52.512;13.448;2024-03-08T09:34:40;101692.00;;;12.10
63220;BMP180;49320;52.512;13.448;2024-03-08T09:37:07;101689.00;;;12.20
63220;BMP180;49320;52.512;13.448;2024-03-08T09:39:35;101691.00;;;12.20
63220;BMP180;49320;52.512;13.448;2024-03-08T09:42:02;101678.00;;;12.30
63220;BMP180;49320;52.512;13.448;2024-03-08T09:44:30;101685.00;;;12.30
63220;BMP180;49320;52.512;13.448;2024-03-08T09:46:58;101682.00;;;12.40
63220;BMP180;49320;52.512;13.448;2024-03-08T09:49:26;101682.00;;;12.40
63220;BMP180;49320;52.512;13.448;2024-03-08T09:51:53;101669.00;;;12.50
63220;BMP180;49320;52.512;13.448;2024-03-08T09:54:20;101676.00;;;12.50
63220;BMP180;49320;52.512;13.448;2024-03-08T09:56:51;101672.00;;;12.60
63220;BMP180;49320;52.512;13.448;2024-03-08T09:59:18;101661.00;;;12.60
63220;BMP180;49320;52.512;13.448;2024-03-08T10:01:55;101662.00;;;12.60
63220;BMP180;49320;52.512;13.448;2024-03-08T10:04:23;101659.00;;;12.70
63220;BMP180;49320;52.512;13.448;2024-03-08T10:06:50;101663.00;;;12.70
63220;BMP180;49320;52.512;13.448;2024-03-08T10:09:16;101664.00;;;12.80
63220;BMP180;49320;52.512;13.448;2024-03-08T10:11:44;101651.00;;;12.90
63220;BMP180;49320;52.512;13.448;2024-03-08T10:14:11;101658.00;;;12.90
63220;BMP180;49320;52.512;13.448;2024-03-08T10:16:39;101654.00;;;12.90
63220;BMP180;49320;52.512;13.448;2024-03-08T10:19:07;101647.00;;;13.00
63220;BMP180;49320;52.512;13.448;2024-03-08T10:21:34;101650.00;;;13.00
63220;BMP180;49320;52.512;13.448;2024-03-08T10:24:03;101646.00;;;13.00
63220;BMP180;49320;52.512;13.448;2024-03-08T10:26:30;101641.00;;;13.00
63220;BMP180;49320;52.512;13.448;2024-03-08T10:28:57;101647.00;;;13.10
63220;BMP180;49320;52.512;13.448;2024-03-08T10:31:25;101637.00;;;13.10
63220;BMP180;49320;52.512;13.448;2024-03-08T10:33:52;101626.00;;;13.10
63220;BMP180;49320;52.512;13.448;2024-03-08T10:36:19;101630.00;;;13.20
63220;BMP180;49320;52.512;13.448;2024-03-08T10:38:46;101623.00;;;13.20
63220;BMP180;49320;52.512;13.448;2024-03-08T10:41:16;101624.00;;;13.30
63220;BMP180;49320;52.512;13.448;2024-03-08T10:47:02;101625.00;;;13.40
63220;BMP180;49320;52.512;13.448;2024-03-08T10:49:39;101608.00;;;13.40
63220;BMP180;49320;52.512;13.448;2024-03-08T10:52:11;101616.00;;;13.50
63220;BMP180;49320;52.512;13.448;2024-03-08T10:54:40;101606.00;;;13.50
63220;BMP180;49320;52.512;13.448;2024-03-08T10:57:13;101607.00;;;13.50
63220;BMP180;49320;52.512;13.448;2024-03-08T10:59:40;101612.00;;;13.60
63220;BMP180;49320;52.512;13.448;2024-03-08T11:02:12;101597.00;;;13.70
63220;BMP180;49320;52.512;13.448;2024-03-08T11:04:47;101603.00;;;13.70
63220;BMP180;49320;52.512;13.448;2024-03-08T11:07:16;101600.00;;;13.80
63220;BMP180;49320;52.512;13.448;2024-03-08T11:09:48;101586.00;;;13.80
63220;BMP180;49320;52.512;13.448;2024-03-08T11:12:26;101590.00;;;13.90
63220;BMP180;49320;52.512;13.448;2024-03-08T11:15:00;101573.00;;;13.90
63220;BMP180;49320;52.512;13.448;2024-03-08T11:19:59;101572.00;;;14.00
63220;BMP180;49320;52.512;13.448;2024-03-08T11:22:29;101570.00;;;14.00
63220;BMP180;49320;52.512;13.448;2024-03-08T11:25:03;101567.00;;;14.10
63220;BMP180;49320;52.512;13.448;2024-03-08T11:27:36;101558.00;;;14.10
63220;BMP180;49320;52.512;13.448;2024-03-08T11:30:08;101549.00;;;14.10
63220;BMP180;49320;52.512;13.448;2024-03-08T11:32:45;101551.00;;;14.20
63220;BMP180;49320;52.512;13.448;2024-03-08T11:35:22;101544.00;;;14.20
63220;BMP180;49320;52.512;13.448;2024-03-08T11:37:51;101548.00;;;14.30
63220;BMP180;49320;52.512;13.448;2024-03-08T11:40:19;101549.00;;;14.30
63220;BMP180;49320;52.512;13.448;2024-03-08T11:42:48;101537.00;;;14.30
63220;BMP180;49320;52.512;13.448;2024-03-08T11:45:16;101537.00;;;14.40
63220;BMP180;49320;52.512;13.448;2024-03-08T11:47:44;101542.00;;;14.40
63220;BMP180;49320;52.512;13.448;2024-03-08T11:50:15;101535.00;;;14.50
63220;BMP180;49320;52.512;13.448;2024-03-08T11:52:43;101536.00;;;14.50
63220;BMP180;49320;52.512;13.448;2024-03-08T11:55:11;101533.00;;;14.60
63220;BMP180;49320;52.512;13.448;2024-03-08T11:57:40;101536.00;;;14.60
63220;BMP180;49320;52.512;13.448;2024-03-08T12:00:17;101525.00;;;14.60
63220;BMP180;49320;52.512;13.448;2024-03-08T12:03:07;101520.00;;;14.70
63220;BMP180;49320;52.512;13.448;2024-03-08T12:05:34;101529.00;;;14.70
63220;BMP180;49320;52.512;13.448;2024-03-08T12:08:05;101528.00;;;14.70
63220;BMP180;49320;52.512;13.448;2024-03-08T12:10:34;101520.00;;;14.70
63220;BMP180;49320;52.512;13.448;2024-03-08T12:13:02;101514.00;;;14.80
63220;BMP180;49320;52.512;13.448;2024-03-08T12:15:39;101513.00;;;14.80
63220;BMP180;49320;52.512;13.448;2024-03-08T12:18:06;101507.00;;;14.80
63220;BMP180;49320;52.512;13.448;2024-03-08T12:20:33;101509.00;;;14.80
63220;BMP180;49320;52.512;13.448;2024-03-08T12:23:00;101510.00;;;14.80
63220;BMP180;49320;52.512;13.448;2024-03-08T12:25:31;101516.00;;;14.90
63220;BMP180;49320;52.512;13.448;2024-03-08T12:28:13;101502.00;;;14.90
63220;BMP180;49320;52.512;13.448;2024-03-08T12:30:50;101505.00;;;14.90
63220;BMP180;49320;52.512;13.448;2024-03-08T12:33:21;101500.00;;;14.90
63220;BMP180;49320;52.512;13.448;2024-03-08T12:35:54;101494.00;;;15.00
63220;BMP180;49320;52.512;13.448;2024-03-08T12:38:23;101488.00;;;15.00
63220;BMP180;49320;52.512;13.448;2024-03-08T12:40:59;101488.00;;;15.00
63220;BMP180;49320;52.512;13.448;2024-03-08T12:43:27;101486.00;;;15.00
63220;BMP180;49320;52.512;13.448;2024-03-08T12:45:58;101476.00;;;15.10
63220;BMP180;49320;52.512;13.448;2024-03-08T12:48:25;101472.00;;;15.10
63220;BMP180;49320;52.512;13.448;2024-03-08T12:50:52;101471.00;;;15.10
63220;BMP180;49320;52.512;13.448;2024-03-08T12:53:20;101466.00;;;15.20
63220;BMP180;49320;52.512;13.448;2024-03-08T12:55:48;101461.00;;;15.20
63220;BMP180;49320;52.512;13.448;2024-03-08T12:58:14;101453.00;;;15.20
63220;BMP180;49320;52.512;13.448;2024-03-08T13:00:43;101448.00;;;15.30
63220;BMP180;49320;52.512;13.448;2024-03-08T13:03:10;101452.00;;;15.30
63220;BMP180;49320;52.512;13.448;2024-03-08T13:05:38;101447.00;;;15.30
63220;BMP180;49320;52.512;13.448;2024-03-08T13:08:09;101437.00;;;15.40
63220;BMP180;49320;52.512;13.448;2024-03-08T13:10:42;101437.00;;;15.40
63220;BMP180;49320;52.512;13.448;2024-03-08T13:13:12;101442.00;;;15.40
63220;BMP180;49320;52.512;13.448;2024-03-08T13:15:43;101436.00;;;15.40
63220;BMP180;49320;52.512;13.448;2024-03-08T13:18:09;101440.00;;;15.40
63220;BMP180;49320;52.512;13.448;2024-03-08T13:20:37;101430.00;;;15.50
63220;BMP180;49320;52.512;13.448;2024-03-08T13:23:13;101438.00;;;15.50
63220;BMP180;49320;52.512;13.448;2024-03-08T13:25:40;101426.00;;;15.50
63220;BMP180;49320;52.512;13.448;2024-03-08T13:28:08;101408.00;;;15.50
63220;BMP180;49320;52.512;13.448;2024-03-08T13:30:35;101420.00;;;15.60
63220;BMP180;49320;52.512;13.448;2024-03-08T13:33:02;101420.00;;;15.60
63220;BMP180;49320;52.512;13.448;2024-03-08T13:35:32;101412.00;;;15.60
63220;BMP180;49320;52.512;13.448;2024-03-08T13:37:59;101418.00;;;15.70
63220;BMP180;49320;52.512;13.448;2024-03-08T13:40:29;101416.00;;;15.70
63220;BMP180;49320;52.512;13.448;2024-03-08T13:42:55;101410.00;;;15.70
63220;BMP180;49320;52.512;13.448;2024-03-08T13:45:23;101402.00;;;15.70
63220;BMP180;49320;52.512;13.448;2024-03-08T13:47:53;101402.00;;;15.70
63220;BMP180;49320;52.512;13.448;2024-03-08T13:50:21;101401.00;;;15.70
63220;BMP180;49320;52.512;13.448;2024-03-08T13:52:49;101398.00;;;15.70
63220;BMP180;49320;52.512;13.448;2024-03-08T13:55:21;101386.00;;;15.70
63220;BMP180;49320;52.512;13.448;2024-03-08T13:57:54;101388.00;;;15.70
63220;BMP180;49320;52.512;13.448;2024-03-08T14:00:24;101387.00;;;15.70
63220;BMP180;49320;52.512;13.448;2024-03-08T14:02:54;101391.00;;;15.70